Time;durP1;ratioP1;P1;durP2;ratioP2;P2;SDS_P1;SDS_P2;PMS_P1;PMS_P2;Temp;Humidity;BMP_temperature;BMP_pressure;BME280_temperature;BME280_humidity;BME280_pressure;Samples;Min_cycle;Max_cycle;Signal;HPM_P1;HPM_P2
2021/12/12 00:01:38;;;;;;;157.52;39.53;;;;;;;;;;4986174;28;20022;-44
2021/12/12 00:04:13;;;;;;;155.23;43.05;;;;;;;;;;4990045;28;20034;-45
2021/12/12 00:06:54;;;;;;;149.00;40.30;;;;;;;;;;4986638;28;20308;-45
2021/12/12 00:09:26;;;;;;;174.73;53.90;;;;;;;;;;4988590;28;20561;-44
2021/12/12 00:11:52;;;;;;;163.93;45.45;;;;;;;;;;4987438;28;20046;-44
2021/12/12 00:14:26;;;;;;;181.68;41.70;;;;;;;;;;4988684;28;20030;-46
2021/12/12 00:16:53;;;;;;;149.38;39.35;;;;;;;;;;4986478;28;20038;-44
2021/12/12 00:19:19;;;;;;;144.75;38.80;;;;;;;;;;4988559;28;20026;-44
2021/12/12 00:21:47;;;;;;;153.60;42.78;;;;;;;;;;4988608;28;20029;-45
2021/12/12 00:24:15;;;;;;;164.43;42.13;;;;;;;;;;4984667;28;20522;-43
2021/12/12 00:26:41;;;;;;;177.23;48.38;;;;;;;;;;4987436;28;20481;-45
2021/12/12 00:29:08;;;;;;;129.23;37.97;;;;;;;;;;4987049;28;20053;-44
2021/12/12 00:31:35;;;;;;;154.98;40.97;;;;;;;;;;4988785;28;20105;-44
2021/12/12 00:34:02;;;;;;;169.23;44.25;;;;;;;;;;4988681;28;20044;-45
2021/12/12 00:36:28;;;;;;;159.50;41.15;;;;;;;;;;4985128;28;20034;-44
2021/12/12 00:38:57;;;;;;;156.15;42.05;;;;;;;;;;4987395;28;20113;-45
2021/12/12 00:41:28;;;;;;;152.50;35.33;;;;;;;;;;4988529;28;20023;-45
2021/12/12 00:43:54;;;;;;;171.18;39.72;;;;;;;;;;4987171;28;20035;-45
2021/12/12 00:46:22;;;;;;;155.82;38.08;;;;;;;;;;4987032;28;20090;-45
2021/12/12 00:48:49;;;;;;;141.02;37.10;;;;;;;;;;4988181;28;20041;-44
2021/12/12 00:51:18;;;;;;;140.85;34.72;;;;;;;;;;4987854;28;20117;-43
2021/12/12 00:53:44;;;;;;;152.32;35.53;;;;;;;;;;4988211;28;20510;-46
2021/12/12 00:56:11;;;;;;;122.93;33.13;;;;;;;;;;4987696;28;20485;-45
2021/12/12 00:58:37;;;;;;;130.98;30.88;;;;;;;;;;4988555;28;20076;-44
2021/12/12 01:01:12;;;;;;;124.22;31.38;;;;;;;;;;4987158;28;20611;-45
2021/12/12 01:03:38;;;;;;;;;;;;;;;;;;4991092;28;20145;-43
2021/12/12 01:06:05;;;;;;;103.43;29.50;;;;;;;;;;4992388;28;20397;-45
2021/12/12 01:08:32;;;;;;;131.15;34.08;;;;;;;;;;4994025;28;20018;-44
2021/12/12 01:11:09;;;;;;;116.10;30.27;;;;;;;;;;4991338;28;20473;-48
2021/12/12 01:13:35;;;;;;;128.68;32.40;;;;;;;;;;4993014;28;20062;-45
2021/12/12 01:16:06;;;;;;;111.35;30.65;;;;;;;;;;4991877;28;20440;-47
2021/12/12 01:18:36;;;;;;;137.68;33.42;;;;;;;;;;4993125;28;20494;-45
2021/12/12 01:21:10;;;;;;;115.05;31.58;;;;;;;;;;4990984;28;20042;-45
2021/12/12 01:23:39;;;;;;;114.40;31.38;;;;;;;;;;4991882;28;20030;-45
2021/12/12 01:26:06;;;;;;;113.45;32.33;;;;;;;;;;4988463;28;20034;-44
2021/12/12 01:28:34;;;;;;;129.25;33.15;;;;;;;;;;4992297;28;20054;-45
2021/12/12 01:31:01;;;;;;;129.40;34.85;;;;;;;;;;4992505;28;20109;-44
2021/12/12 01:33:35;;;;;;;124.47;32.50;;;;;;;;;;4992133;28;20104;-45
2021/12/12 01:36:06;;;;;;;120.20;31.90;;;;;;;;;;4989398;28;20498;-45
2021/12/12 01:38:53;;;;;;;131.93;32.92;;;;;;;;;;4992429;28;20052;-47
2021/12/12 01:41:28;;;;;;;120.95;31.65;;;;;;;;;;4992237;28;20030;-44
2021/12/12 01:43:58;;;;;;;119.60;32.80;;;;;;;;;;4989195;28;20528;-45
2021/12/12 01:46:27;;;;;;;122.55;31.88;;;;;;;;;;4992452;28;20041;-44
2021/12/12 01:48:59;;;;;;;131.18;32.90;;;;;;;;;;4990620;28;20077;-44
2021/12/12 01:51:27;;;;;;;125.95;33.03;;;;;;;;;;4992008;28;20480;-45
2021/12/12 01:53:54;;;;;;;126.85;31.13;;;;;;;;;;4985816;28;20040;-45
2021/12/12 01:56:26;;;;;;;144.10;35.28;;;;;;;;;;4992252;28;20034;-46
2021/12/12 01:58:54;;;;;;;126.95;32.70;;;;;;;;;;4987045;28;20026;-44
2021/12/12 02:01:25;;;;;;;137.80;35.10;;;;;;;;;;4989775;28;20037;-44
2021/12/12 02:03:57;;;;;;;127.90;32.30;;;;;;;;;;4988363;28;20588;-44
2021/12/12 02:06:24;;;;;;;129.18;31.75;;;;;;;;;;4991891;28;20068;-45
2021/12/12 02:08:52;;;;;;;144.05;36.45;;;;;;;;;;4990969;28;20064;-44
2021/12/12 02:11:23;;;;;;;120.05;33.38;;;;;;;;;;4991338;28;20033;-44
2021/12/12 02:13:50;;;;;;;144.13;35.40;;;;;;;;;;4990327;28;20022;-45
2021/12/12 02:16:16;;;;;;;133.88;32.38;;;;;;;;;;4989098;28;20510;-45
2021/12/12 02:18:47;;;;;;;126.20;32.35;;;;;;;;;;4991291;28;20022;-45
2021/12/12 02:21:33;;;;;;;120.90;33.60;;;;;;;;;;4992138;28;20038;-45
2021/12/12 02:37:42;;;;;;;130.57;33.92;;;;;;;;;;4990720;28;20117;-44
2021/12/12 02:40:11;;;;;;;147.32;35.72;;;;;;;;;;4991222;28;20362;-45
2021/12/12 02:42:37;;;;;;;145.13;35.33;;;;;;;;;;4989153;28;20057;-45
2021/12/12 02:45:05;;;;;;;142.02;36.30;;;;;;;;;;4991802;28;20594;-45
2021/12/12 02:47:34;;;;;;;149.50;36.80;;;;;;;;;;4990714;28;20121;-44
2021/12/12 02:50:13;;;;;;;140.57;33.72;;;;;;;;;;4991883;28;20470;-46
2021/12/12 02:52:39;;;;;;;138.65;34.58;;;;;;;;;;4991302;28;20473;-45
2021/12/12 02:55:09;;;;;;;144.73;37.45;;;;;;;;;;4991049;28;20029;-46
2021/12/12 02:57:35;;;;;;;144.48;38.28;;;;;;;;;;4990449;28;20734;-45
2021/12/12 03:00:01;;;;;;;125.25;36.08;;;;;;;;;;4990885;28;20026;-44
2021/12/12 03:02:30;;;;;;;138.10;33.78;;;;;;;;;;4989991;28;20018;-45
2021/12/12 03:04:58;;;;;;;145.02;36.45;;;;;;;;;;4991789;28;20034;-45
2021/12/12 03:07:24;;;;;;;151.93;36.53;;;;;;;;;;4990110;28;20026;-44
2021/12/12 03:09:55;;;;;;;145.75;36.65;;;;;;;;;;4990920;28;20046;-44
2021/12/12 03:12:23;;;;;;;136.20;36.50;;;;;;;;;;4990148;28;20049;-45
2021/12/12 03:14:49;;;;;;;140.25;38.03;;;;;;;;;;4991054;28;20130;-44
2021/12/12 03:17:21;;;;;;;139.48;39.28;;;;;;;;;;4989955;28;20796;-44
2021/12/12 03:19:50;;;;;;;142.98;37.22;;;;;;;;;;4989686;28;20058;-45
2021/12/12 03:22:16;;;;;;;134.07;36.97;;;;;;;;;;4990764;28;20094;-42
2021/12/12 03:24:42;;;;;;;148.77;36.22;;;;;;;;;;4990620;28;20041;-42
2021/12/12 03:27:10;;;;;;;142.05;36.13;;;;;;;;;;4989062;28;20057;-42
2021/12/12 03:29:37;;;;;;;158.32;41.05;;;;;;;;;;4988328;28;20142;-44
2021/12/12 03:32:09;;;;;;;150.15;39.38;;;;;;;;;;4990194;28;20052;-42
2021/12/12 03:34:36;;;;;;;146.63;41.28;;;;;;;;;;4987693;28;20053;-44
2021/12/12 03:37:04;;;;;;;149.75;41.30;;;;;;;;;;4990555;28;20026;-43
2021/12/12 03:39:31;;;;;;;158.80;40.95;;;;;;;;;;4990926;28;20148;-42
2021/12/12 03:41:59;;;;;;;147.43;40.45;;;;;;;;;;4989867;28;20026;-42
2021/12/12 03:44:28;;;;;;;141.32;40.03;;;;;;;;;;4987779;28;20613;-45
2021/12/12 03:46:56;;;;;;;151.35;40.25;;;;;;;;;;4990109;28;20702;-42
2021/12/12 03:49:23;;;;;;;153.15;39.83;;;;;;;;;;4986988;28;20128;-42
2021/12/12 03:51:50;;;;;;;143.30;40.33;;;;;;;;;;4987913;28;20046;-45
2021/12/12 03:54:16;;;;;;;133.65;38.13;;;;;;;;;;4988146;28;20061;-43
2021/12/12 03:56:43;;;;;;;158.43;42.05;;;;;;;;;;4990677;28;20089;-43
2021/12/12 03:59:09;;;;;;;164.00;40.55;;;;;;;;;;4987545;28;20104;-42
2021/12/12 04:01:38;;;;;;;155.63;41.72;;;;;;;;;;4988265;28;20027;-44
2021/12/12 04:04:10;;;;;;;145.40;43.50;;;;;;;;;;4989324;28;20077;-43
2021/12/12 04:06:36;;;;;;;153.50;42.75;;;;;;;;;;4989945;28;20120;-43
2021/12/12 04:09:04;;;;;;;169.63;44.15;;;;;;;;;;4989882;28;20058;-43
2021/12/12 04:11:32;;;;;;;133.35;40.50;;;;;;;;;;4989376;28;20133;-42
2021/12/12 04:13:59;;;;;;;170.93;45.80;;;;;;;;;;4989200;28;20026;-45
2021/12/12 04:16:26;;;;;;;142.30;41.20;;;;;;;;;;4989836;28;20102;-45
2021/12/12 04:18:52;;;;;;;145.35;42.22;;;;;;;;;;4987544;28;20113;-42
2021/12/12 04:21:20;;;;;;;128.00;39.80;;;;;;;;;;4988847;28;20681;-44
2021/12/12 04:23:46;;;;;;;146.80;41.72;;;;;;;;;;4989506;28;20073;-42
2021/12/12 04:26:20;;;;;;;126.32;40.85;;;;;;;;;;4989284;28;20064;-44
2021/12/12 04:28:54;;;;;;;128.05;38.92;;;;;;;;;;4989982;28;20451;-45
2021/12/12 04:31:20;;;;;;;140.10;43.42;;;;;;;;;;4988179;28;20030;-47
2021/12/12 04:33:46;;;;;;;140.05;38.83;;;;;;;;;;4990322;28;20096;-42
2021/12/12 04:36:12;;;;;;;126.88;40.38;;;;;;;;;;4989673;28;20033;-43
2021/12/12 04:38:38;;;;;;;139.57;40.75;;;;;;;;;;4990073;28;20397;-45
2021/12/12 04:41:04;;;;;;;126.03;39.78;;;;;;;;;;4989260;28;20034;-45
2021/12/12 04:43:30;;;;;;;138.30;37.80;;;;;;;;;;4990894;28;20046;-43
2021/12/12 04:46:03;;;;;;;127.82;38.78;;;;;;;;;;4992869;28;20065;-44
2021/12/12 04:51:22;;;;;;;110.90;37.42;;;;;;;;;;4988856;28;20041;-44
2021/12/12 04:54:08;;;;;;;117.43;37.78;;;;;;;;;;4989476;28;20030;-43
2021/12/12 04:56:46;;;;;;;119.60;35.60;;;;;;;;;;4988936;28;20046;-43
2021/12/12 04:59:21;;;;;;;108.00;37.03;;;;;;;;;;4990111;28;20066;-42
2021/12/12 05:02:02;;;;;;;107.78;34.17;;;;;;;;;;4989075;28;20042;-45
2021/12/12 05:04:36;;;;;;;117.03;37.75;;;;;;;;;;4989548;28;20086;-43
2021/12/12 05:07:09;;;;;;;117.77;37.07;;;;;;;;;;4988603;28;20080;-44
2021/12/12 05:09:49;;;;;;;112.07;34.17;;;;;;;;;;4988445;28;20297;-42
2021/12/12 05:12:26;;;;;;;125.07;34.97;;;;;;;;;;4987765;28;20485;-43
2021/12/12 05:14:57;;;;;;;104.10;34.88;;;;;;;;;;4987540;28;20061;-45
2021/12/12 05:17:29;;;;;;;103.45;32.33;;;;;;;;;;4990148;28;20109;-46
2021/12/12 05:19:58;;;;;;;106.43;34.60;;;;;;;;;;4987970;28;20673;-42
2021/12/12 05:22:32;;;;;;;103.35;32.75;;;;;;;;;;4986910;28;20046;-43
2021/12/12 05:25:00;;;;;;;113.30;33.03;;;;;;;;;;4977938;28;20034;-42
2021/12/12 05:27:28;;;;;;;93.97;30.85;;;;;;;;;;4990038;28;20057;-46
2021/12/12 05:30:02;;;;;;;109.68;31.70;;;;;;;;;;4988407;28;20132;-42
2021/12/12 05:32:30;;;;;;;80.43;29.27;;;;;;;;;;4989550;28;20030;-42
2021/12/12 05:34:56;;;;;;;90.13;31.23;;;;;;;;;;4989129;28;20429;-42
2021/12/12 05:37:23;;;;;;;86.13;29.48;;;;;;;;;;4989780;28;20504;-43
2021/12/12 05:39:51;;;;;;;98.82;31.60;;;;;;;;;;4988113;28;20030;-43
2021/12/12 05:42:18;;;;;;;94.78;30.98;;;;;;;;;;4987573;28;20148;-42
2021/12/12 05:44:44;;;;;;;90.20;29.20;;;;;;;;;;4989925;28;20050;-43
2021/12/12 05:47:10;;;;;;;90.50;28.92;;;;;;;;;;4980748;28;20416;-43
2021/12/12 05:49:37;;;;;;;84.50;27.83;;;;;;;;;;4982557;28;20429;-44
2021/12/12 05:52:06;;;;;;;88.20;29.58;;;;;;;;;;4994555;28;20077;-43
2021/12/12 05:54:32;;;;;;;83.53;28.02;;;;;;;;;;4994351;28;20069;-45
2021/12/12 05:57:00;;;;;;;81.85;27.65;;;;;;;;;;4989788;28;20026;-43
2021/12/12 05:59:27;;;;;;;84.65;29.48;;;;;;;;;;4992000;28;20018;-46
2021/12/12 06:01:53;;;;;;;78.53;28.70;;;;;;;;;;4994524;28;20098;-46
2021/12/12 06:04:20;;;;;;;95.22;28.58;;;;;;;;;;4987383;28;20092;-44
2021/12/12 06:06:46;;;;;;;87.63;30.00;;;;;;;;;;4987088;28;20029;-43
2021/12/12 06:09:13;;;;;;;91.20;30.40;;;;;;;;;;4993644;28;20026;-44
2021/12/12 06:11:41;;;;;;;86.93;29.50;;;;;;;;;;4992229;28;20496;-42
2021/12/12 06:14:07;;;;;;;88.43;28.35;;;;;;;;;;4987978;28;20509;-45
2021/12/12 06:16:34;;;;;;;84.63;28.77;;;;;;;;;;4990002;28;20456;-44
2021/12/12 06:19:03;;;;;;;84.45;26.92;;;;;;;;;;4993311;28;20061;-44
2021/12/12 06:21:29;;;;;;;70.68;27.08;;;;;;;;;;4989536;28;20058;-43
2021/12/12 06:23:55;;;;;;;84.65;27.08;;;;;;;;;;4991709;28;20373;-44
2021/12/12 06:26:22;;;;;;;78.45;28.00;;;;;;;;;;4993834;28;20054;-42
2021/12/12 06:28:49;;;;;;;81.75;29.95;;;;;;;;;;4988962;28;20045;-42
2021/12/12 06:31:16;;;;;;;78.05;28.15;;;;;;;;;;4986578;28;20034;-43
2021/12/12 06:33:42;;;;;;;87.00;27.58;;;;;;;;;;4989027;28;20489;-43
2021/12/12 06:36:09;;;;;;;80.82;27.40;;;;;;;;;;4990491;28;20030;-45
2021/12/12 06:38:36;;;;;;;90.05;29.27;;;;;;;;;;4992846;28;20050;-44
2021/12/12 06:41:02;;;;;;;79.25;28.35;;;;;;;;;;4979848;28;20069;-44
2021/12/12 06:43:29;;;;;;;87.90;27.38;;;;;;;;;;4991994;28;20116;-43
2021/12/12 06:45:55;;;;;;;87.68;28.17;;;;;;;;;;4991172;28;20520;-43
2021/12/12 06:48:21;;;;;;;82.90;27.48;;;;;;;;;;4976137;28;20088;-43
2021/12/12 06:50:48;;;;;;;87.10;29.75;;;;;;;;;;4978008;28;20070;-46
2021/12/12 06:53:15;;;;;;;88.40;28.55;;;;;;;;;;4989247;28;20072;-42
2021/12/12 06:55:44;;;;;;;75.50;26.27;;;;;;;;;;4993526;28;20098;-44
2021/12/12 06:58:11;;;;;;;75.32;26.17;;;;;;;;;;4989669;28;20145;-43
2021/12/12 07:00:38;;;;;;;83.00;28.00;;;;;;;;;;4988423;28;20615;-42
2021/12/12 07:03:04;;;;;;;89.72;27.40;;;;;;;;;;4989658;28;20037;-42
2021/12/12 07:05:31;;;;;;;81.90;26.10;;;;;;;;;;4989586;28;20026;-44
2021/12/12 07:07:58;;;;;;;74.07;26.33;;;;;;;;;;4992110;28;20030;-44
2021/12/12 07:10:26;;;;;;;83.55;28.13;;;;;;;;;;4990818;28;20110;-43
2021/12/12 07:12:56;;;;;;;70.78;26.15;;;;;;;;;;4992655;28;20027;-42
2021/12/12 07:15:25;;;;;;;75.45;26.10;;;;;;;;;;4990585;28;20161;-46
2021/12/12 07:17:55;;;;;;;99.10;25.55;;;;;;;;;;4989052;28;20044;-42
2021/12/12 07:20:22;;;;;;;73.28;24.90;;;;;;;;;;4990672;28;20106;-43
2021/12/12 07:22:48;;;;;;;79.25;25.27;;;;;;;;;;4991229;28;20038;-45
2021/12/12 07:25:15;;;;;;;74.43;25.25;;;;;;;;;;4991069;28;20034;-42
2021/12/12 07:27:41;;;;;;;84.70;25.77;;;;;;;;;;4991441;28;20054;-44
2021/12/12 07:30:09;;;;;;;75.43;25.45;;;;;;;;;;4991613;28;20116;-45
2021/12/12 07:32:37;;;;;;;82.07;24.77;;;;;;;;;;4989058;28;20453;-44
2021/12/12 07:35:05;;;;;;;87.40;27.48;;;;;;;;;;4987254;28;20046;-42
2021/12/12 07:37:32;;;;;;;69.25;22.40;;;;;;;;;;4990305;28;20474;-42
2021/12/12 07:39:58;;;;;;;74.45;24.48;;;;;;;;;;4986131;28;20035;-46
2021/12/12 07:42:24;;;;;;;63.15;22.30;;;;;;;;;;4987957;28;20459;-43
2021/12/12 07:44:50;;;;;;;69.70;22.83;;;;;;;;;;4992052;28;20492;-42
2021/12/12 07:47:17;;;;;;;59.97;22.23;;;;;;;;;;4992294;28;20034;-40
2021/12/12 07:49:44;;;;;;;71.93;23.77;;;;;;;;;;4987460;28;20050;-43
2021/12/12 07:52:14;;;;;;;55.50;23.08;;;;;;;;;;4988577;28;20018;-44
2021/12/12 07:54:40;;;;;;;67.90;21.48;;;;;;;;;;4989170;28;20022;-44
2021/12/12 07:57:07;;;;;;;62.65;21.05;;;;;;;;;;4992282;28;20023;-42
2021/12/12 07:59:35;;;;;;;67.97;23.23;;;;;;;;;;4991348;28;20026;-43
2021/12/12 08:02:02;;;;;;;66.13;21.85;;;;;;;;;;4989318;28;20038;-43
2021/12/12 08:04:30;;;;;;;70.55;22.80;;;;;;;;;;4987034;28;20022;-43
2021/12/12 08:06:57;;;;;;;61.33;22.27;;;;;;;;;;4988149;28;20035;-39
2021/12/12 08:09:23;;;;;;;63.30;20.35;;;;;;;;;;4988014;28;20062;-40
2021/12/12 08:11:50;;;;;;;62.10;20.55;;;;;;;;;;4976244;28;20064;-44
2021/12/12 08:14:18;;;;;;;73.72;22.38;;;;;;;;;;4988311;28;20058;-42
2021/12/12 08:16:46;;;;;;;70.38;19.88;;;;;;;;;;4988640;28;20034;-44
2021/12/12 08:19:12;;;;;;;61.08;20.70;;;;;;;;;;4987977;28;20149;-43
2021/12/12 08:21:39;;;;;;;52.92;20.65;;;;;;;;;;4989168;28;20493;-42
2021/12/12 08:24:07;;;;;;;69.53;21.15;;;;;;;;;;4993295;28;20029;-43
2021/12/12 08:26:34;;;;;;;61.30;19.60;;;;;;;;;;4988628;28;20107;-46
2021/12/12 08:29:00;;;;;;;70.40;20.15;;;;;;;;;;4989302;28;20512;-45
2021/12/12 08:31:27;;;;;;;70.55;19.70;;;;;;;;;;4987799;28;20026;-42
2021/12/12 08:33:53;;;;;;;66.05;21.02;;;;;;;;;;4987201;28;20069;-44
2021/12/12 08:36:19;;;;;;;61.97;20.80;;;;;;;;;;4996212;28;20080;-42
2021/12/12 08:38:45;;;;;;;60.92;20.08;;;;;;;;;;4991422;28;20105;-43
2021/12/12 08:41:12;;;;;;;71.90;20.83;;;;;;;;;;4987078;28;20034;-44
2021/12/12 08:43:39;;;;;;;61.08;21.15;;;;;;;;;;4986258;28;20077;-41
2021/12/12 08:46:07;;;;;;;59.40;20.48;;;;;;;;;;4982844;28;20111;-37
2021/12/12 08:48:35;;;;;;;50.33;19.05;;;;;;;;;;4986227;28;20081;-36
2021/12/12 08:51:04;;;;;;;57.45;18.52;;;;;;;;;;4988248;28;20026;-37
2021/12/12 08:53:30;;;;;;;57.30;18.30;;;;;;;;;;4972693;28;20516;-38
2021/12/12 08:55:57;;;;;;;65.95;18.65;;;;;;;;;;4987770;28;20120;-37
2021/12/12 08:58:25;;;;;;;58.60;16.30;;;;;;;;;;4990148;28;20018;-36
2021/12/12 09:01:02;;;;;;;49.95;17.48;;;;;;;;;;4988839;28;20146;-37
2021/12/12 09:03:37;;;;;;;51.17;18.60;;;;;;;;;;4994446;28;20054;-38
2021/12/12 09:06:03;;;;;;;48.05;17.65;;;;;;;;;;4991166;28;20560;-37
2021/12/12 09:08:39;;;;;;;36.53;14.23;;;;;;;;;;4993488;28;20488;-36
2021/12/12 09:11:08;;;;;;;56.33;21.90;;;;;;;;;;4992771;28;20046;-37
2021/12/12 09:13:54;;;;;;;46.13;15.52;;;;;;;;;;4987435;28;20026;-37
2021/12/12 09:16:22;;;;;;;38.83;12.85;;;;;;;;;;4986093;28;20101;-38
2021/12/12 09:18:52;;;;;;;27.77;12.02;;;;;;;;;;4986175;28;20509;-37
2021/12/12 09:21:26;;;;;;;32.80;11.00;;;;;;;;;;5003799;23;20031;-38
2021/12/12 09:24:02;;;;;;;23.67;10.65;;;;;;;;;;4984384;28;20503;-37
2021/12/12 09:26:28;;;;;;;24.67;10.45;;;;;;;;;;4989380;28;20022;-37
2021/12/12 09:28:57;;;;;;;26.30;10.50;;;;;;;;;;4990084;28;20488;-38
2021/12/12 09:31:29;;;;;;;20.95;8.75;;;;;;;;;;4988154;28;20065;-37
2021/12/12 09:33:58;;;;;;;27.88;11.15;;;;;;;;;;4994241;28;20080;-37
2021/12/12 09:36:34;;;;;;;21.30;8.77;;;;;;;;;;4999411;28;20037;-37
2021/12/12 09:39:09;;;;;;;15.85;8.07;;;;;;;;;;4994887;28;20027;-37
2021/12/12 09:41:45;;;;;;;23.42;8.48;;;;;;;;;;4994472;28;20026;-37
2021/12/12 09:44:30;;;;;;;23.00;7.90;;;;;;;;;;4994312;28;20481;-37
2021/12/12 09:47:27;;;;;;;25.05;8.57;;;;;;;;;;4994763;28;20022;-37
2021/12/12 09:53:03;;;;;;;21.63;8.20;;;;;;;;;;4991554;28;20037;-37
2021/12/12 09:55:35;;;;;;;21.60;8.10;;;;;;;;;;4991262;28;20058;-37
2021/12/12 09:58:16;;;;;;;20.90;7.05;;;;;;;;;;4989672;28;20019;-37
2021/12/12 10:00:46;;;;;;;14.20;6.00;;;;;;;;;;4992321;28;20423;-37
2021/12/12 10:03:24;;;;;;;12.65;5.97;;;;;;;;;;4993323;28;20044;-37
2021/12/12 10:05:50;;;;;;;13.85;5.90;;;;;;;;;;4994943;28;20038;-37
2021/12/12 10:08:23;;;;;;;11.73;5.72;;;;;;;;;;4994650;28;20022;-37
2021/12/12 10:11:04;;;;;;;8.57;5.00;;;;;;;;;;4994382;28;20030;-38
2021/12/12 10:13:39;;;;;;;14.20;5.90;;;;;;;;;;4999788;28;20077;-37
2021/12/12 10:16:08;;;;;;;14.00;6.10;;;;;;;;;;4991424;28;20496;-37
2021/12/12 10:18:44;;;;;;;17.85;6.53;;;;;;;;;;4992777;28;20081;-37
2021/12/12 10:21:16;;;;;;;12.05;5.90;;;;;;;;;;4992179;28;20027;-38
2021/12/12 10:24:00;;;;;;;12.20;5.30;;;;;;;;;;4991491;28;20523;-37
2021/12/12 10:26:34;;;;;;;11.30;4.78;;;;;;;;;;4990871;28;20035;-37
2021/12/12 10:29:03;;;;;;;13.20;5.47;;;;;;;;;;4993012;28;20045;-37
2021/12/12 10:31:39;;;;;;;10.82;4.60;;;;;;;;;;4994867;28;20058;-36
2021/12/12 10:34:13;;;;;;;13.80;5.78;;;;;;;;;;4994439;28;20041;-37
2021/12/12 10:36:44;;;;;;;13.80;5.25;;;;;;;;;;4993267;28;20109;-36
2021/12/12 10:39:13;;;;;;;12.40;6.32;;;;;;;;;;4990372;28;20050;-36
2021/12/12 10:41:39;;;;;;;12.38;5.70;;;;;;;;;;4991760;28;20028;-37
2021/12/12 10:44:08;;;;;;;21.85;11.82;;;;;;;;;;4993355;28;20386;-37
2021/12/12 10:46:38;;;;;;;20.65;9.27;;;;;;;;;;4987300;28;20077;-37
2021/12/12 10:49:13;;;;;;;12.50;7.32;;;;;;;;;;4991992;28;20049;-37
2021/12/12 10:51:42;;;;;;;10.50;5.57;;;;;;;;;;4988770;28;20442;-37
2021/12/12 10:54:13;;;;;;;15.20;6.68;;;;;;;;;;4992681;28;20054;-37
2021/12/12 10:56:41;;;;;;;12.93;6.32;;;;;;;;;;4999918;28;20397;-37
2021/12/12 10:59:25;;;;;;;12.10;5.88;;;;;;;;;;4999782;28;20030;-36
2021/12/12 11:01:55;;;;;;;14.00;6.25;;;;;;;;;;4986088;28;20018;-38
2021/12/12 11:04:36;;;;;;;14.05;5.93;;;;;;;;;;4988089;28;20034;-38
2021/12/12 11:07:04;;;;;;;11.60;5.95;;;;;;;;;;5002601;28;20037;-37
2021/12/12 11:09:34;;;;;;;17.02;7.85;;;;;;;;;;4995766;28;20038;-38
2021/12/12 11:12:11;;;;;;;10.18;6.32;;;;;;;;;;4990137;28;20025;-38
2021/12/12 11:14:51;;;;;;;11.98;5.88;;;;;;;;;;4993633;28;20050;-37
2021/12/12 11:17:22;;;;;;;14.13;6.03;;;;;;;;;;4993120;28;20037;-36
2021/12/12 11:19:58;;;;;;;11.75;5.85;;;;;;;;;;4992576;28;20105;-37
2021/12/12 11:22:24;;;;;;;11.98;5.47;;;;;;;;;;4991814;28;20057;-37
2021/12/12 11:24:57;;;;;;;12.20;6.13;;;;;;;;;;4991286;28;20030;-37
2021/12/12 11:27:30;;;;;;;13.27;6.00;;;;;;;;;;4995611;28;20049;-37
2021/12/12 11:30:01;;;;;;;8.75;5.95;;;;;;;;;;4991506;28;20109;-37
2021/12/12 11:32:29;;;;;;;10.00;6.07;;;;;;;;;;4992736;28;20033;-37
2021/12/12 11:34:57;;;;;;;9.32;5.78;;;;;;;;;;4991298;28;20066;-37
2021/12/12 11:37:23;;;;;;;12.70;7.03;;;;;;;;;;4992116;28;20603;-37
2021/12/12 11:39:56;;;;;;;17.35;6.20;;;;;;;;;;4993425;28;20030;-38
2021/12/12 11:42:27;;;;;;;9.90;6.10;;;;;;;;;;4992344;28;20374;-36
2021/12/12 11:45:03;;;;;;;14.70;7.10;;;;;;;;;;4990822;28;20058;-37
2021/12/12 11:47:47;;;;;;;10.45;5.63;;;;;;;;;;5001992;28;20370;-37
2021/12/12 11:50:13;;;;;;;10.88;6.70;;;;;;;;;;4999198;28;20076;-38
2021/12/12 11:52:54;;;;;;;12.63;6.63;;;;;;;;;;4991105;28;20027;-37
2021/12/12 11:55:36;;;;;;;14.05;7.35;;;;;;;;;;4992941;28;20030;-37
2021/12/12 11:58:05;;;;;;;11.65;6.88;;;;;;;;;;4993174;28;20029;-37
2021/12/12 12:00:37;;;;;;;12.55;6.38;;;;;;;;;;4994209;28;20022;-37
2021/12/12 12:03:24;;;;;;;13.60;6.97;;;;;;;;;;4992027;28;20026;-36
2021/12/12 12:05:51;;;;;;;13.13;6.93;;;;;;;;;;4988952;28;20034;-37
2021/12/12 12:08:26;;;;;;;13.38;7.03;;;;;;;;;;4991568;28;20110;-36
2021/12/12 12:11:01;;;;;;;13.25;8.50;;;;;;;;;;4989251;28;20041;-37
2021/12/12 12:13:46;;;;;;;16.35;7.00;;;;;;;;;;4994007;28;20062;-36
2021/12/12 12:16:12;;;;;;;13.93;8.02;;;;;;;;;;4986427;28;20120;-36
2021/12/12 12:18:48;;;;;;;12.27;7.60;;;;;;;;;;5003234;28;20030;-38
2021/12/12 12:21:30;;;;;;;13.43;7.35;;;;;;;;;;5000179;28;20041;-38
2021/12/12 12:26:52;;;;;;;14.30;9.80;;;;;;;;;;4992784;28;20081;-37
2021/12/12 12:29:33;;;;;;;15.13;8.48;;;;;;;;;;4990642;28;20165;-37
2021/12/12 12:32:05;;;;;;;12.18;7.88;;;;;;;;;;4992677;28;20033;-36
2021/12/12 12:34:50;;;;;;;16.98;9.30;;;;;;;;;;4991363;28;20030;-36
2021/12/12 12:37:36;;;;;;;16.73;10.35;;;;;;;;;;5000518;28;20512;-37
2021/12/12 12:40:20;;;;;;;13.35;8.48;;;;;;;;;;4993877;28;20092;-38
2021/12/12 12:43:05;;;;;;;15.52;9.77;;;;;;;;;;4994457;28;20072;-37
2021/12/12 12:45:49;;;;;;;16.35;9.90;;;;;;;;;;4990515;28;20038;-37
2021/12/12 12:48:34;;;;;;;14.10;9.82;;;;;;;;;;4993670;28;20116;-36
2021/12/12 12:51:19;;;;;;;15.40;9.57;;;;;;;;;;4993049;28;20060;-37
2021/12/12 12:53:59;;;;;;;15.05;9.88;;;;;;;;;;4989686;28;20488;-36
2021/12/12 12:56:43;;;;;;;21.33;11.60;;;;;;;;;;4990839;28;20649;-37
2021/12/12 12:59:29;;;;;;;19.63;11.18;;;;;;;;;;4992575;28;20038;-37
2021/12/12 13:01:58;;;;;;;16.10;10.73;;;;;;;;;;4995369;28;20032;-37
2021/12/12 13:04:40;;;;;;;20.08;11.30;;;;;;;;;;4999583;28;20081;-37
2021/12/12 13:07:15;;;;;;;18.30;10.93;;;;;;;;;;4989009;28;20030;-37
2021/12/12 13:09:47;;;;;;;18.73;11.07;;;;;;;;;;4990495;28;20492;-38
2021/12/12 13:12:16;;;;;;;20.55;10.88;;;;;;;;;;4991837;28;20062;-38
2021/12/12 13:14:49;;;;;;;17.38;10.60;;;;;;;;;;4995993;28;20162;-37
2021/12/12 13:17:36;;;;;;;17.02;11.45;;;;;;;;;;4987475;28;20129;-37
2021/12/12 13:20:02;;;;;;;19.70;11.68;;;;;;;;;;4986298;28;20023;-37
2021/12/12 13:22:32;;;;;;;15.32;10.73;;;;;;;;;;4990860;28;20035;-38
2021/12/12 13:24:58;;;;;;;19.25;11.10;;;;;;;;;;4990226;28;20090;-37
2021/12/12 13:30:42;;;;;;;17.85;10.63;;;;;;;;;;4990271;28;20033;-37
2021/12/12 13:33:14;;;;;;;19.20;10.65;;;;;;;;;;4996251;28;20113;-37
2021/12/12 13:36:01;;;;;;;17.65;10.95;;;;;;;;;;4994004;28;20022;-37
2021/12/12 13:38:53;;;;;;;14.63;10.60;;;;;;;;;;4960791;28;20484;-37
2021/12/12 13:41:27;;;;;;;15.80;10.35;;;;;;;;;;4994974;28;20179;-37
2021/12/12 13:44:04;;;;;;;21.40;11.25;;;;;;;;;;5004972;28;20034;-37
2021/12/12 13:46:48;;;;;;;16.60;10.48;;;;;;;;;;5004784;28;20081;-37
2021/12/12 13:49:28;;;;;;;16.25;10.43;;;;;;;;;;5002631;28;20085;-37
2021/12/12 13:52:09;;;;;;;17.95;10.90;;;;;;;;;;4997063;28;20044;-37
2021/12/12 13:54:35;;;;;;;17.15;10.25;;;;;;;;;;4999331;28;20065;-38
2021/12/12 13:57:02;;;;;;;16.13;10.13;;;;;;;;;;4996069;28;20061;-37
2021/12/12 13:59:34;;;;;;;15.48;9.43;;;;;;;;;;4995251;28;20076;-37
2021/12/12 14:02:05;;;;;;;13.30;9.75;;;;;;;;;;5005836;28;20033;-38
2021/12/12 14:04:53;;;;;;;14.55;9.50;;;;;;;;;;5001051;28;20498;-38
2021/12/12 14:07:23;;;;;;;15.35;10.40;;;;;;;;;;4990876;28;20350;-38
2021/12/12 14:09:51;;;;;;;14.43;9.60;;;;;;;;;;4992287;28;20095;-37
2021/12/12 14:12:18;;;;;;;14.98;10.10;;;;;;;;;;4989608;28;20041;-38
2021/12/12 14:15:00;;;;;;;15.60;10.23;;;;;;;;;;4992183;28;20062;-37
2021/12/12 14:17:35;;;;;;;17.45;8.82;;;;;;;;;;4992389;28;20583;-37
2021/12/12 14:20:06;;;;;;;14.32;9.32;;;;;;;;;;4995295;28;20730;-37
2021/12/12 14:22:32;;;;;;;12.63;8.52;;;;;;;;;;4996723;28;20026;-37
2021/12/12 14:25:03;;;;;;;14.70;9.02;;;;;;;;;;4992844;28;20029;-37
2021/12/12 14:27:30;;;;;;;12.90;8.85;;;;;;;;;;4992437;28;20041;-37
2021/12/12 14:29:56;;;;;;;12.20;9.32;;;;;;;;;;4990048;28;20433;-38
2021/12/12 14:32:26;;;;;;;14.80;8.98;;;;;;;;;;4995684;28;20050;-38
2021/12/12 14:35:04;;;;;;;14.43;8.98;;;;;;;;;;4994852;28;20069;-37
2021/12/12 14:37:33;;;;;;;14.13;9.15;;;;;;;;;;4994855;28;20524;-37
2021/12/12 14:40:14;;;;;;;16.33;10.10;;;;;;;;;;4995199;28;20019;-37
2021/12/12 14:42:49;;;;;;;14.65;9.25;;;;;;;;;;4995998;28;20022;-37
2021/12/12 14:45:18;;;;;;;15.27;9.15;;;;;;;;;;4991608;28;20385;-38
2021/12/12 14:47:48;;;;;;;14.38;9.27;;;;;;;;;;4992710;28;20030;-38
2021/12/12 14:50:21;;;;;;;15.00;9.38;;;;;;;;;;4991906;28;20501;-37
2021/12/12 14:52:48;;;;;;;14.48;9.15;;;;;;;;;;4992434;28;20022;-37
2021/12/12 14:55:20;;;;;;;14.93;9.52;;;;;;;;;;4992070;28;20037;-38
2021/12/12 14:57:50;;;;;;;14.90;9.70;;;;;;;;;;4993126;28;20126;-38
2021/12/12 15:00:22;;;;;;;15.13;9.68;;;;;;;;;;4989101;28;20061;-38
2021/12/12 15:02:59;;;;;;;14.45;10.02;;;;;;;;;;4992297;28;20516;-38